ADDS METAR Data INFO
IDs: Format: Raw Decoded Include TAF

Data at: 1839 UTC 17 Oct 2017

KSYI 171835Z AUTO 00000KT 10SM CLR 18/05 A3029 RMK A01
KSYI 171815Z AUTO 33003KT 10SM CLR 19/06 A3030 RMK A01
KSYI 171755Z AUTO 00000KT 10SM CLR 18/06 A3031 RMK A01
KSYI 171735Z AUTO 00000KT 3SM HZ CLR 18/05 A3032 RMK A01
KSYI 171715Z AUTO VRB03KT 10SM CLR 18/05 A3033 RMK A01
KSYI 171655Z AUTO 22004KT 10SM CLR 17/05 A3034 RMK A01
KSYI 171635Z AUTO 00000KT 10SM CLR 16/06 A3035 RMK A01
KSYI 171615Z AUTO 00000KT 10SM CLR 16/06 A3036 RMK A01
KSYI 171555Z AUTO VRB04KT 10SM CLR 15/06 A3037 RMK A01
KSYI 171535Z AUTO 00000KT 10SM CLR 15/06 A3038 RMK A01
KSYI 171515Z AUTO VRB03KT 10SM CLR 14/06 A3038 RMK A01
KSYI 171455Z AUTO 11004KT 10SM CLR 13/07 A3038 RMK A01
KSYI 171435Z AUTO VRB04KT 10SM CLR 12/07 A3038 RMK A01
KSYI 171415Z AUTO 00000KT 10SM CLR 11/07 A3038 RMK A01
KSYI 171355Z AUTO 00000KT 10SM CLR 09/07 A3037 RMK A01
KSYI 171335Z AUTO 00000KT 10SM CLR 08/06 A3036 RMK A01
KSYI 171315Z AUTO 00000KT 10SM CLR 07/06 A3036 RMK A01
KSYI 171255Z AUTO 00000KT 10SM CLR 05/05 A3036 RMK A01
KSYI 171235Z AUTO 00000KT 10SM CLR 04/04 A3034 RMK A01
KSYI 171215Z AUTO 00000KT 10SM CLR 03/03 A3034 RMK A01
KSYI 171155Z AUTO 00000KT 10SM CLR 03/03 A3034 RMK A01
KSYI 171135Z AUTO 00000KT 10SM CLR 03/03 A3033 RMK A01
KSYI 171115Z AUTO 00000KT 10SM CLR 03/03 A3033 RMK A01
KSYI 171055Z AUTO 00000KT 10SM CLR 03/03 A3032 RMK A01
KSYI 171035Z AUTO 00000KT 4SM BR CLR 03/03 A3032 RMK A01
KSYI 171015Z AUTO 00000KT 10SM CLR 04/04 A3032 RMK A01
KSYI 170955Z AUTO 00000KT 10SM CLR 04/03 A3031 RMK A01
KSYI 170935Z AUTO 00000KT 10SM CLR 04/04 A3031 RMK A01
KSYI 170915Z AUTO 01003KT 10SM CLR 04/04 A3031 RMK A01
KSYI 170855Z AUTO 00000KT 10SM CLR 04/04 A3030 RMK A01
KSYI 170835Z AUTO 00000KT 10SM CLR 05/04 A3030 RMK A01
KSYI 170815Z AUTO 00000KT 10SM CLR 04/04 A3029 RMK A01
KSYI 170755Z AUTO 3.00000003KT 10SM CLR 05/04 A3029 RMK A01
KSYI 170735Z AUTO 00000KT 10SM CLR 05/04 A3029 RMK A01
KSYI 170715Z AUTO 00000KT 10SM CLR 05/05 A3029 RMK A01
KSYI 170655Z AUTO 00000KT 10SM CLR 05/05 A3029 RMK A01
KSYI 170635Z AUTO 00000KT 10SM CLR 06/05 A3029 RMK A01
KSYI 170610Z AUTO 00000KT 10SM CLR 05/05 A3030 RMK A01
KSYI 170555Z AUTO 00000KT 10SM CLR 06/05 A3030 RMK A01
KSYI 170535Z AUTO 00000KT 10SM CLR 06/05 A3030 RMK A01
KSYI 170515Z AUTO 00000KT 7SM CLR 06/05 A3030 RMK A01
KSYI 170455Z AUTO 00000KT 10SM CLR 06/05 A3030 RMK A01
KSYI 170435Z AUTO 00000KT 10SM CLR 07/06 A3029 RMK A01
KSYI 170415Z AUTO 03005KT 10SM CLR 07/06 A3029 RMK A01
KSYI 170355Z AUTO 04003KT 10SM CLR 08/06 A3030 RMK A01
KSYI 170335Z AUTO 02004KT 10SM CLR 09/06 A3030 RMK A01
KSYI 170315Z AUTO 00000KT 10SM CLR 09/06 A3030 RMK A01
KSYI 170255Z AUTO 04005KT 10SM CLR 10/06 A3029 RMK A01
KSYI 170235Z AUTO 04005KT 10SM CLR 10/06 A3029 RMK A01
KSYI 170215Z AUTO 05004KT 10SM CLR 10/06 A3029 RMK A01
KSYI 170155Z AUTO 03006KT 10SM CLR 11/06 A3029 RMK A01
KSYI 170135Z AUTO 02004KT 10SM CLR 11/05 A3028 RMK A01
KSYI 170115Z AUTO 36006KT 10SM CLR 11/06 A3028 RMK A01
KSYI 170055Z AUTO 01005KT 10SM CLR 11/06 A3028 RMK A01
KSYI 170035Z AUTO 01006KT 10SM CLR 11/06 A3027 RMK A01
KSYI 170015Z AUTO 01006KT 10SM CLR 12/06 A3027 RMK A01
KSYI 162355Z AUTO 02006KT 10SM CLR 12/06 A3026 RMK A01
KSYI 162335Z AUTO 01006KT 10SM CLR 13/06 A3026 RMK A01
KSYI 162315Z AUTO 02006KT 10SM CLR 14/06 A3025 RMK A01
KSYI 162255Z AUTO 02009KT 10SM CLR 15/05 A3025 RMK A01
KSYI 162235Z AUTO 02011KT 10SM CLR 16/05 A3025 RMK A01
KSYI 162215Z AUTO 01010KT 10SM CLR 16/06 A3024 RMK A01
KSYI 162155Z AUTO 01011KT 6SM HZ CLR 17/06 A3024 RMK A01
KSYI 162135Z AUTO 02008G15KT 4SM HZ CLR 17/06 A3023 RMK A01
KSYI 162115Z AUTO 03011KT 10SM CLR 17/06 A3023 RMK A01
KSYI 162055Z AUTO 01012KT 10SM CLR 17/06 A3023 RMK A01
KSYI 162035Z AUTO 01014KT 10SM CLR 17/06 A3023 RMK A01
KSYI 162015Z AUTO 03013G19KT 10SM CLR 17/06 A3024 RMK A01
KSYI 161955Z AUTO 01011KT 10SM CLR 17/06 A3024 RMK A01
KSYI 161935Z AUTO 01015KT 10SM CLR 17/05 A3024 RMK A01
KSYI 161915Z AUTO 02013G22KT 10SM CLR 17/06 A3025 RMK A01
KSYI 161855Z AUTO 35014G21KT 10SM CLR 17/06 A3026 RMK A01
KSYI 161835Z AUTO 36013KT 10SM CLR 17/07 A3027 RMK A01
KSYI 161815Z AUTO 01012G21KT 10SM CLR 17/06 A3027 RMK A01
KSYI 161755Z AUTO 01011G19KT 10SM CLR 16/07 A3028 RMK A01
KSYI 161735Z AUTO 02015G21KT 10SM CLR 16/07 A3029 RMK A01
KSYI 161715Z AUTO 01013G20KT 10SM CLR 16/06 A3029 RMK A01
KSYI 161655Z AUTO 36012G21KT 10SM CLR 15/06 A3030 RMK A01
KSYI 161635Z AUTO 03011KT 10SM CLR 15/07 A3030 RMK A01
KSYI 161615Z AUTO 03012G20KT 10SM CLR 14/06 A3030 RMK A01
KSYI 161555Z AUTO 01015G20KT 10SM FEW034 14/07 A3031 RMK A01
KSYI 161535Z AUTO 03015KT 10SM SCT031 14/06 A3031 RMK A01
KSYI 161515Z AUTO 04016KT 10SM FEW031 13/06 A3030 RMK A01
KSYI 161455Z AUTO 36014KT 10SM FEW031 13/06 A3030 RMK A01
KSYI 161435Z AUTO 03011G17KT 10SM FEW031 13/07 A3030 RMK A01
KSYI 161415Z AUTO 02012G20KT 10SM CLR 12/06 A3029 RMK A01
KSYI 161355Z AUTO 01010G18KT 10SM CLR 12/07 A3029 RMK A01
KSYI 161335Z AUTO 36010G15KT 10SM CLR 11/07 A3029 RMK A01
KSYI 161315Z AUTO 36007KT 10SM CLR 11/07 A3029 RMK A01
KSYI 161255Z AUTO 35006KT 10SM CLR 10/07 A3028 RMK A01
KSYI 161235Z AUTO 01006KT 10SM CLR 09/06 A3027 RMK A01
KSYI 161215Z AUTO 01005KT 10SM CLR 09/06 A3027 RMK A01
KSYI 161155Z AUTO 01005KT 10SM FEW030 09/06 A3026 RMK A01
KSYI 161135Z AUTO 36006KT 10SM OVC030 10/06 A3026 RMK A01
KSYI 161115Z AUTO 02007KT 10SM OVC031 10/06 A3025 RMK A01
KSYI 161055Z AUTO 01006G14KT 10SM OVC032 10/06 A3025 RMK A01
KSYI 161035Z AUTO 01007KT 10SM OVC031 11/06 A3024 RMK A01
KSYI 161015Z AUTO 01008KT 10SM OVC030 11/06 A3024 RMK A01
KSYI 160955Z AUTO 36009KT 10SM OVC030 11/06 A3023 RMK A01
KSYI 160935Z AUTO 36010G18KT 10SM OVC030 11/06 A3023 RMK A01
KSYI 160915Z AUTO 01013KT 10SM OVC029 11/06 A3022 RMK A01
KSYI 160855Z AUTO 02008KT 10SM OVC028 11/07 A3022 RMK A01
KSYI 160835Z AUTO 02009KT 10SM OVC026 11/07 A3022 RMK A01
KSYI 160815Z AUTO 02009KT 10SM OVC027 11/07 A3022 RMK A01
KSYI 160755Z AUTO 01011KT 10SM OVC027 11/07 A3022 RMK A01
KSYI 160735Z AUTO 02011G17KT 10SM OVC026 11/07 A3022 RMK A01
KSYI 160715Z AUTO 02009G17KT 10SM OVC026 11/07 A3023 RMK A01
KSYI 160655Z AUTO 02011KT 10SM OVC026 11/07 A3023 RMK A01